sensor_id;sensor_type;location;lat;lon;timestamp;pressure;altitude;pressure_sealevel;temperature;humidity
6938;BME280;40040;42.706;23.372;2023-03-01T00:02:22;145731.44;;;6.30;100.00
6938;BME280;40040;42.706;23.372;2023-03-01T00:04:49;145690.91;;;6.13;100.00
6938;BME280;40040;42.706;23.372;2023-03-01T00:07:16;145693.34;;;6.14;100.00
6938;BME280;40040;42.706;23.372;2023-03-01T00:09:43;145703.19;;;6.18;100.00
6938;BME280;40040;42.706;23.372;2023-03-01T00:12:12;145617.13;;;5.83;100.00
6938;BME280;40040;42.706;23.372;2023-03-01T00:14:39;145698.25;;;6.16;100.00
6938;BME280;40040;42.706;23.372;2023-03-01T00:17:06;145651.56;;;5.97;100.00
6938;BME280;40040;42.706;23.372;2023-03-01T00:19:33;145688.41;;;6.12;100.00
6938;BME280;40040;42.706;23.372;2023-03-01T00:22:00;145663.84;;;6.02;100.00
6938;BME280;40040;42.706;23.372;2023-03-01T00:24:27;145665.09;;;6.03;100.00
6938;BME280;40040;42.706;23.372;2023-03-01T00:26:54;145672.44;;;6.06;100.00
6938;BME280;40040;42.706;23.372;2023-03-01T00:29:23;145627.00;;;5.87;100.00
6938;BME280;40040;42.706;23.372;2023-03-01T00:31:51;145658.91;;;6.00;100.00
6938;BME280;40040;42.706;23.372;2023-03-01T00:34:18;145657.72;;;6.00;100.00
6938;BME280;40040;42.706;23.372;2023-03-01T00:36:45;145641.72;;;5.93;100.00
6938;BME280;40040;42.706;23.372;2023-03-01T00:39:14;145651.56;;;5.97;100.00
6938;BME280;40040;42.706;23.372;2023-03-01T00:41:41;145656.47;;;5.99;100.00
6938;BME280;40040;42.706;23.372;2023-03-01T00:44:10;145650.31;;;5.97;100.00
6938;BME280;40040;42.706;23.372;2023-03-01T00:46:38;145556.88;;;5.58;100.00
6938;BME280;40040;42.706;23.372;2023-03-01T00:49:05;145645.38;;;5.95;100.00
6938;BME280;40040;42.706;23.372;2023-03-01T00:51:32;145636.78;;;5.91;100.00
6938;BME280;40040;42.706;23.372;2023-03-01T00:54:01;145639.28;;;5.92;100.00
6938;BME280;40040;42.706;23.372;2023-03-01T00:56:29;145570.41;;;5.64;100.00
6938;BME280;40040;42.706;23.372;2023-03-01T00:58:56;145633.09;;;5.90;100.00
6938;BME280;40040;42.706;23.372;2023-03-01T01:01:24;145638.03;;;5.92;100.00
6938;BME280;40040;42.706;23.372;2023-03-01T01:03:56;145627.00;;;5.87;100.00
6938;BME280;40040;42.706;23.372;2023-03-01T01:06:24;145623.31;;;5.86;100.00
6938;BME280;40040;42.706;23.372;2023-03-01T01:08:52;145628.19;;;5.88;100.00
6938;BME280;40040;42.706;23.372;2023-03-01T01:11:20;145538.44;;;5.51;100.00
6938;BME280;40040;42.706;23.372;2023-03-01T01:13:48;145531.06;;;5.48;100.00
6938;BME280;40040;42.706;23.372;2023-03-01T01:16:17;145590.03;;;5.72;100.00
6938;BME280;40040;42.706;23.372;2023-03-01T01:18:44;145542.16;;;5.52;100.00
6938;BME280;40040;42.706;23.372;2023-03-01T01:21:15;145563.03;;;5.61;100.00
6938;BME280;40040;42.706;23.372;2023-03-01T01:23:43;145544.59;;;5.53;100.00
6938;BME280;40040;42.706;23.372;2023-03-01T01:26:12;145540.91;;;5.52;100.00
6938;BME280;40040;42.706;23.372;2023-03-01T01:28:40;145620.81;;;5.85;100.00
6938;BME280;40040;42.706;23.372;2023-03-01T01:31:07;145520.03;;;5.43;100.00
6938;BME280;40040;42.706;23.372;2023-03-01T01:33:34;145615.91;;;5.83;100.00
6938;BME280;40040;42.706;23.372;2023-03-01T01:36:03;145553.19;;;5.57;100.00
6938;BME280;40040;42.706;23.372;2023-03-01T01:38:31;145609.72;;;5.80;100.00
6938;BME280;40040;42.706;23.372;2023-03-01T01:40:58;145559.34;;;5.59;100.00
6938;BME280;40040;42.706;23.372;2023-03-01T01:43:27;145571.63;;;5.64;100.00
6938;BME280;40040;42.706;23.372;2023-03-01T01:45:55;145575.31;;;5.66;100.00
6938;BME280;40040;42.706;23.372;2023-03-01T01:48:28;145609.72;;;5.80;100.00
6938;BME280;40040;42.706;23.372;2023-03-01T01:51:07;145627.00;;;5.87;100.00
6938;BME280;40040;42.706;23.372;2023-03-01T01:53:38;145634.34;;;5.90;100.00
6938;BME280;40040;42.706;23.372;2023-03-01T01:56:07;145622.06;;;5.85;100.00
6938;BME280;40040;42.706;23.372;2023-03-01T01:58:35;145607.25;;;5.79;100.00
6938;BME280;40040;42.706;23.372;2023-03-01T02:01:04;145533.53;;;5.49;100.00
6938;BME280;40040;42.706;23.372;2023-03-01T02:03:33;145604.81;;;5.78;100.00
6938;BME280;40040;42.706;23.372;2023-03-01T02:06:05;145612.16;;;5.81;100.00
6938;BME280;40040;42.706;23.372;2023-03-01T02:08:37;145610.94;;;5.81;100.00
6938;BME280;40040;42.706;23.372;2023-03-01T02:11:05;145603.56;;;5.78;100.00
6938;BME280;40040;42.706;23.372;2023-03-01T02:13:33;145606.03;;;5.79;100.00
6938;BME280;40040;42.706;23.372;2023-03-01T02:16:04;145609.72;;;5.80;100.00
6938;BME280;40040;42.706;23.372;2023-03-01T02:18:31;145607.25;;;5.79;100.00
6938;BME280;40040;42.706;23.372;2023-03-01T02:21:14;145560.56;;;5.60;100.00
6938;BME280;40040;42.706;23.372;2023-03-01T02:23:45;145590.03;;;5.72;100.00
6938;BME280;40040;42.706;23.372;2023-03-01T02:26:19;145602.31;;;5.77;100.00
6938;BME280;40040;42.706;23.372;2023-03-01T02:28:48;145629.44;;;5.88;100.00
6938;BME280;40040;42.706;23.372;2023-03-01T02:31:18;145588.84;;;5.71;100.00
6938;BME280;40040;42.706;23.372;2023-03-01T02:34:03;145567.97;;;5.63;100.00
6938;BME280;40040;42.706;23.372;2023-03-01T02:36:35;145617.13;;;5.83;100.00
6938;BME280;40040;42.706;23.372;2023-03-01T02:39:04;145614.66;;;5.82;100.00
6938;BME280;40040;42.706;23.372;2023-03-01T02:41:35;145590.03;;;5.72;100.00
6938;BME280;40040;42.706;23.372;2023-03-01T02:44:06;145609.72;;;5.80;100.00
6938;BME280;40040;42.706;23.372;2023-03-01T02:46:34;145579.00;;;5.67;100.00
6938;BME280;40040;42.706;23.372;2023-03-01T02:49:00;145599.88;;;5.76;100.00
6938;BME280;40040;42.706;23.372;2023-03-01T02:51:38;145538.44;;;5.51;100.00
6938;BME280;40040;42.706;23.372;2023-03-01T02:54:15;145577.75;;;5.67;100.00
6938;BME280;40040;42.706;23.372;2023-03-01T02:56:45;145528.63;;;5.47;100.00
6938;BME280;40040;42.706;23.372;2023-03-01T02:59:20;145563.03;;;5.61;100.00
6938;BME280;40040;42.706;23.372;2023-03-01T03:01:47;145505.25;;;5.37;100.00
6938;BME280;40040;42.706;23.372;2023-03-01T03:04:16;145560.56;;;5.60;100.00
6938;BME280;40040;42.706;23.372;2023-03-01T03:06:44;145555.63;;;5.58;100.00
6938;BME280;40040;42.706;23.372;2023-03-01T03:09:11;145481.94;;;5.28;100.00
6938;BME280;40040;42.706;23.372;2023-03-01T03:11:38;145560.56;;;5.60;100.00
6938;BME280;40040;42.706;23.372;2023-03-01T03:14:06;145545.84;;;5.54;100.00
6938;BME280;40040;42.706;23.372;2023-03-01T03:16:40;145565.47;;;5.62;100.00
6938;BME280;40040;42.706;23.372;2023-03-01T03:19:07;145508.94;;;5.39;100.00
6938;BME280;40040;42.706;23.372;2023-03-01T03:21:35;145566.72;;;5.62;100.00
6938;BME280;40040;42.706;23.372;2023-03-01T03:24:02;145565.47;;;5.62;100.00
6938;BME280;40040;42.706;23.372;2023-03-01T03:26:29;145504.06;;;5.37;100.00
6938;BME280;40040;42.706;23.372;2023-03-01T03:28:56;145558.13;;;5.59;100.00
6938;BME280;40040;42.706;23.372;2023-03-01T03:31:23;145547.03;;;5.54;100.00
6938;BME280;40040;42.706;23.372;2023-03-01T03:33:51;145570.41;;;5.64;100.00
6938;BME280;40040;42.706;23.372;2023-03-01T03:36:20;145558.13;;;5.59;100.00
6938;BME280;40040;42.706;23.372;2023-03-01T03:38:47;145507.75;;;5.38;100.00
6938;BME280;40040;42.706;23.372;2023-03-01T03:41:15;145554.44;;;5.57;100.00
6938;BME280;40040;42.706;23.372;2023-03-01T03:43:43;145452.47;;;5.16;100.00
6938;BME280;40040;42.706;23.372;2023-03-01T03:46:11;145496.66;;;5.34;100.00
6938;BME280;40040;42.706;23.372;2023-03-01T03:48:39;145494.22;;;5.33;100.00
6938;BME280;40040;42.706;23.372;2023-03-01T03:51:10;145570.41;;;5.64;100.00
6938;BME280;40040;42.706;23.372;2023-03-01T03:53:37;145567.97;;;5.63;100.00
6938;BME280;40040;42.706;23.372;2023-03-01T03:56:05;145483.13;;;5.28;100.00
6938;BME280;40040;42.706;23.372;2023-03-01T03:58:32;145554.44;;;5.57;100.00
6938;BME280;40040;42.706;23.372;2023-03-01T04:00:59;145553.19;;;5.57;100.00
6938;BME280;40040;42.706;23.372;2023-03-01T04:03:28;145569.16;;;5.63;100.00
6938;BME280;40040;42.706;23.372;2023-03-01T04:05:57;145521.28;;;5.44;100.00
6938;BME280;40040;42.706;23.372;2023-03-01T04:08:27;145532.31;;;5.48;100.00
6938;BME280;40040;42.706;23.372;2023-03-01T04:10:58;145513.88;;;5.41;100.00
6938;BME280;40040;42.706;23.372;2023-03-01T04:13:26;145523.72;;;5.45;100.00
6938;BME280;40040;42.706;23.372;2023-03-01T04:15:54;145479.47;;;5.27;100.00
6938;BME280;40040;42.706;23.372;2023-03-01T04:18:22;145534.75;;;5.49;100.00
6938;BME280;40040;42.706;23.372;2023-03-01T04:20:49;145528.63;;;5.47;100.00
6938;BME280;40040;42.706;23.372;2023-03-01T04:23:19;145528.63;;;5.47;100.00
6938;BME280;40040;42.706;23.372;2023-03-01T04:25:49;145535.97;;;5.50;100.00
6938;BME280;40040;42.706;23.372;2023-03-01T04:28:19;145532.31;;;5.48;100.00
6938;BME280;40040;42.706;23.372;2023-03-01T04:30:47;145523.72;;;5.45;100.00
6938;BME280;40040;42.706;23.372;2023-03-01T04:33:14;145516.34;;;5.42;100.00
6938;BME280;40040;42.706;23.372;2023-03-01T04:35:41;145518.78;;;5.43;100.00
6938;BME280;40040;42.706;23.372;2023-03-01T04:38:08;145520.03;;;5.43;100.00
6938;BME280;40040;42.706;23.372;2023-03-01T04:40:36;145517.53;;;5.42;100.00
6938;BME280;40040;42.706;23.372;2023-03-01T04:43:04;145517.53;;;5.42;100.00
6938;BME280;40040;42.706;23.372;2023-03-01T04:45:32;145506.50;;;5.38;100.00
6938;BME280;40040;42.706;23.372;2023-03-01T04:48:00;145506.50;;;5.38;100.00
6938;BME280;40040;42.706;23.372;2023-03-01T04:50:26;145516.34;;;5.42;100.00
6938;BME280;40040;42.706;23.372;2023-03-01T04:52:54;145479.47;;;5.27;100.00
6938;BME280;40040;42.706;23.372;2023-03-01T04:55:25;145494.22;;;5.33;100.00
6938;BME280;40040;42.706;23.372;2023-03-01T04:57:52;145490.53;;;5.31;100.00
6938;BME280;40040;42.706;23.372;2023-03-01T05:00:22;145501.59;;;5.36;100.00
6938;BME280;40040;42.706;23.372;2023-03-01T05:02:50;145500.34;;;5.35;100.00
6938;BME280;40040;42.706;23.372;2023-03-01T05:05:24;145499.16;;;5.35;100.00
6938;BME280;40040;42.706;23.372;2023-03-01T05:07:55;145489.31;;;5.31;100.00
6938;BME280;40040;42.706;23.372;2023-03-01T05:10:23;145479.47;;;5.27;100.00
6938;BME280;40040;42.706;23.372;2023-03-01T05:12:50;145477.03;;;5.26;100.00
6938;BME280;40040;42.706;23.372;2023-03-01T05:15:19;145489.31;;;5.31;100.00
6938;BME280;40040;42.706;23.372;2023-03-01T05:17:48;145454.91;;;5.17;100.00
6938;BME280;40040;42.706;23.372;2023-03-01T05:20:15;145480.72;;;5.27;100.00
6938;BME280;40040;42.706;23.372;2023-03-01T05:22:42;145496.66;;;5.34;100.00
6938;BME280;40040;42.706;23.372;2023-03-01T05:25:09;145494.22;;;5.33;100.00
6938;BME280;40040;42.706;23.372;2023-03-01T05:27:36;145451.22;;;5.15;100.00
6938;BME280;40040;42.706;23.372;2023-03-01T05:30:04;145496.66;;;5.34;100.00
6938;BME280;40040;42.706;23.372;2023-03-01T05:32:40;145508.94;;;5.39;100.00
6938;BME280;40040;42.706;23.372;2023-03-01T05:35:10;145494.22;;;5.33;100.00
6938;BME280;40040;42.706;23.372;2023-03-01T05:37:42;145505.25;;;5.37;100.00
6938;BME280;40040;42.706;23.372;2023-03-01T05:40:10;145443.88;;;5.12;100.00
6938;BME280;40040;42.706;23.372;2023-03-01T05:42:45;145504.06;;;5.37;100.00
6938;BME280;40040;42.706;23.372;2023-03-01T05:45:13;145484.38;;;5.29;100.00
6938;BME280;40040;42.706;23.372;2023-03-01T05:47:42;145513.88;;;5.41;100.00
6938;BME280;40040;42.706;23.372;2023-03-01T05:50:16;145512.66;;;5.40;100.00
6938;BME280;40040;42.706;23.372;2023-03-01T05:52:46;145481.94;;;5.28;100.00
6938;BME280;40040;42.706;23.372;2023-03-01T05:55:14;145470.84;;;5.23;100.00
6938;BME280;40040;42.706;23.372;2023-03-01T05:57:41;145437.72;;;5.10;100.00
6938;BME280;40040;42.706;23.372;2023-03-01T06:00:09;145522.47;;;5.44;100.00
6938;BME280;40040;42.706;23.372;2023-03-01T06:02:36;145518.78;;;5.43;100.00
6938;BME280;40040;42.706;23.372;2023-03-01T06:05:04;145494.22;;;5.33;100.00
6938;BME280;40040;42.706;23.372;2023-03-01T06:07:32;145526.16;;;5.46;100.00
6938;BME280;40040;42.706;23.372;2023-03-01T06:09:59;145506.50;;;5.38;100.00
6938;BME280;40040;42.706;23.372;2023-03-01T06:12:26;145497.91;;;5.34;100.00
6938;BME280;40040;42.706;23.372;2023-03-01T06:14:52;145516.34;;;5.42;100.00
6938;BME280;40040;42.706;23.372;2023-03-01T06:17:19;145478.25;;;5.26;100.00
6938;BME280;40040;42.706;23.372;2023-03-01T06:19:46;145484.38;;;5.29;100.00
6938;BME280;40040;42.706;23.372;2023-03-01T06:22:13;145486.88;;;5.30;100.00
6938;BME280;40040;42.706;23.372;2023-03-01T06:24:41;145494.22;;;5.33;100.00
6938;BME280;40040;42.706;23.372;2023-03-01T06:27:08;145470.84;;;5.23;100.00
6938;BME280;40040;42.706;23.372;2023-03-01T06:29:35;145496.66;;;5.34;100.00
6938;BME280;40040;42.706;23.372;2023-03-01T06:32:02;145462.25;;;5.20;100.00
6938;BME280;40040;42.706;23.372;2023-03-01T06:34:29;145485.63;;;5.29;100.00
6938;BME280;40040;42.706;23.372;2023-03-01T06:36:56;145497.91;;;5.34;100.00
6938;BME280;40040;42.706;23.372;2023-03-01T06:39:23;145501.59;;;5.36;100.00
6938;BME280;40040;42.706;23.372;2023-03-01T06:41:51;145529.81;;;5.47;100.00
6938;BME280;40040;42.706;23.372;2023-03-01T06:44:18;145523.72;;;5.45;100.00
6938;BME280;40040;42.706;23.372;2023-03-01T06:46:46;145496.66;;;5.34;100.00
6938;BME280;40040;42.706;23.372;2023-03-01T06:49:13;145531.06;;;5.48;100.00
6938;BME280;40040;42.706;23.372;2023-03-01T06:51:41;145521.28;;;5.44;100.00
6938;BME280;40040;42.706;23.372;2023-03-01T06:54:08;145540.91;;;5.52;100.00
6938;BME280;40040;42.706;23.372;2023-03-01T06:56:35;145523.72;;;5.45;100.00
6938;BME280;40040;42.706;23.372;2023-03-01T06:59:04;145534.75;;;5.49;100.00
6938;BME280;40040;42.706;23.372;2023-03-01T07:01:31;145506.50;;;5.38;100.00
6938;BME280;40040;42.706;23.372;2023-03-01T07:03:58;145554.44;;;5.57;100.00
6938;BME280;40040;42.706;23.372;2023-03-01T07:06:25;145558.13;;;5.59;100.00
6938;BME280;40040;42.706;23.372;2023-03-01T07:08:52;145575.31;;;5.66;100.00
6938;BME280;40040;42.706;23.372;2023-03-01T07:11:18;145577.75;;;5.67;100.00
6938;BME280;40040;42.706;23.372;2023-03-01T07:13:45;145586.34;;;5.70;100.00
6938;BME280;40040;42.706;23.372;2023-03-01T07:16:13;145560.56;;;5.60;100.00
6938;BME280;40040;42.706;23.372;2023-03-01T07:18:40;145587.59;;;5.71;100.00
6938;BME280;40040;42.706;23.372;2023-03-01T07:21:08;145590.03;;;5.72;100.00
6938;BME280;40040;42.706;23.372;2023-03-01T07:23:36;145602.31;;;5.77;100.00
6938;BME280;40040;42.706;23.372;2023-03-01T07:26:03;145644.19;;;5.94;100.00
6938;BME280;40040;42.706;23.372;2023-03-01T07:28:30;145655.25;;;5.99;100.00
6938;BME280;40040;42.706;23.372;2023-03-01T07:31:01;145576.56;;;5.66;100.00
6938;BME280;40040;42.706;23.372;2023-03-01T07:33:30;145619.59;;;5.84;100.00
6938;BME280;40040;42.706;23.372;2023-03-01T07:35:57;145617.13;;;5.83;100.00
6938;BME280;40040;42.706;23.372;2023-03-01T07:38:24;145673.69;;;6.06;100.00
6938;BME280;40040;42.706;23.372;2023-03-01T07:40:51;145703.19;;;6.18;100.00
6938;BME280;40040;42.706;23.372;2023-03-01T07:43:18;145722.84;;;6.26;100.00
6938;BME280;40040;42.706;23.372;2023-03-01T07:45:46;145725.31;;;6.27;100.00
6938;BME280;40040;42.706;23.372;2023-03-01T07:48:12;145676.13;;;6.07;100.00
6938;BME280;40040;42.706;23.372;2023-03-01T07:50:41;145676.13;;;6.07;100.00
6938;BME280;40040;42.706;23.372;2023-03-01T07:53:08;145705.63;;;6.19;100.00
6938;BME280;40040;42.706;23.372;2023-03-01T07:55:35;145751.16;;;6.38;100.00
6938;BME280;40040;42.706;23.372;2023-03-01T07:58:02;145737.63;;;6.32;100.00
6938;BME280;40040;42.706;23.372;2023-03-01T08:00:29;145759.75;;;6.41;100.00
6938;BME280;40040;42.706;23.372;2023-03-01T08:02:58;145778.16;;;6.49;100.00
6938;BME280;40040;42.706;23.372;2023-03-01T08:05:26;145768.38;;;6.45;100.00
6938;BME280;40040;42.706;23.372;2023-03-01T08:07:54;145757.28;;;6.40;100.00
6938;BME280;40040;42.706;23.372;2023-03-01T08:10:21;145774.50;;;6.47;100.00
6938;BME280;40040;42.706;23.372;2023-03-01T08:12:47;145833.50;;;6.71;100.00
6938;BME280;40040;42.706;23.372;2023-03-01T08:15:14;145779.41;;;6.49;100.00
6938;BME280;40040;42.706;23.372;2023-03-01T08:17:42;145858.16;;;6.81;100.00
6938;BME280;40040;42.706;23.372;2023-03-01T08:20:10;145876.56;;;6.89;100.00
6938;BME280;40040;42.706;23.372;2023-03-01T08:22:37;145865.50;;;6.84;100.00
6938;BME280;40040;42.706;23.372;2023-03-01T08:25:06;145887.66;;;6.94;100.00
6938;BME280;40040;42.706;23.372;2023-03-01T08:27:33;145892.59;;;6.96;100.00
6938;BME280;40040;42.706;23.372;2023-03-01T08:30:00;145881.50;;;6.91;100.00
6938;BME280;40040;42.706;23.372;2023-03-01T08:32:27;145863.03;;;6.83;100.00
6938;BME280;40040;42.706;23.372;2023-03-01T08:34:54;145911.00;;;7.03;100.00
6938;BME280;40040;42.706;23.372;2023-03-01T08:37:21;145897.47;;;6.98;100.00
6938;BME280;40040;42.706;23.372;2023-03-01T08:39:47;145854.41;;;6.80;100.00
6938;BME280;40040;42.706;23.372;2023-03-01T08:42:15;145940.53;;;7.15;100.00
6938;BME280;40040;42.706;23.372;2023-03-01T08:44:42;145931.94;;;7.12;100.00
6938;BME280;40040;42.706;23.372;2023-03-01T08:47:09;145949.16;;;7.19;100.00
6938;BME280;40040;42.706;23.372;2023-03-01T08:49:36;145912.25;;;7.04;100.00
6938;BME280;40040;42.706;23.372;2023-03-01T08:52:02;145972.56;;;7.28;100.00
6938;BME280;40040;42.706;23.372;2023-03-01T08:54:29;146019.31;;;7.47;100.00
6938;BME280;40040;42.706;23.372;2023-03-01T08:56:56;146014.38;;;7.45;100.00
6938;BME280;40040;42.706;23.372;2023-03-01T08:59:25;146030.38;;;7.52;100.00
6938;BME280;40040;42.706;23.372;2023-03-01T09:01:53;146045.16;;;7.58;100.00
6938;BME280;40040;42.706;23.372;2023-03-01T09:04:20;146075.94;;;7.70;100.00
6938;BME280;40040;42.706;23.372;2023-03-01T09:06:47;146089.44;;;7.76;100.00
6938;BME280;40040;42.706;23.372;2023-03-01T09:09:16;146069.75;;;7.68;100.00
6938;BME280;40040;42.706;23.372;2023-03-01T09:11:43;146025.44;;;7.50;100.00
6938;BME280;40040;42.706;23.372;2023-03-01T09:14:11;146075.94;;;7.70;100.00
6938;BME280;40040;42.706;23.372;2023-03-01T09:16:39;146089.44;;;7.76;100.00
6938;BME280;40040;42.706;23.372;2023-03-01T09:19:06;146077.13;;;7.71;100.00
6938;BME280;40040;42.706;23.372;2023-03-01T09:21:33;146063.59;;;7.65;100.00
6938;BME280;40040;42.706;23.372;2023-03-01T09:24:00;146057.47;;;7.63;100.00
6938;BME280;40040;42.706;23.372;2023-03-01T09:26:27;146052.53;;;7.61;100.00
6938;BME280;40040;42.706;23.372;2023-03-01T09:28:55;146064.84;;;7.66;100.00
6938;BME280;40040;42.706;23.372;2023-03-01T09:31:23;146038.97;;;7.55;100.00
6938;BME280;40040;42.706;23.372;2023-03-01T09:33:53;146020.56;;;7.48;100.00
6938;BME280;40040;42.706;23.372;2023-03-01T09:36:21;146027.94;;;7.51;100.00
6938;BME280;40040;42.706;23.372;2023-03-01T09:38:49;145987.28;;;7.34;100.00
6938;BME280;40040;42.706;23.372;2023-03-01T09:41:42;146018.06;;;7.47;100.00
6938;BME280;40040;42.706;23.372;2023-03-01T09:44:18;146030.38;;;7.52;100.00
6938;BME280;40040;42.706;23.372;2023-03-01T09:46:47;145936.84;;;7.14;100.00
6938;BME280;40040;42.706;23.372;2023-03-01T09:49:18;146005.75;;;7.42;100.00
6938;BME280;40040;42.706;23.372;2023-03-01T09:51:55;146005.75;;;7.42;100.00
6938;BME280;40040;42.706;23.372;2023-03-01T09:54:22;146036.53;;;7.54;100.00
6938;BME280;40040;42.706;23.372;2023-03-01T09:56:59;146002.06;;;7.40;100.00
6938;BME280;40040;42.706;23.372;2023-03-01T09:59:31;146046.34;;;7.58;100.00
6938;BME280;40040;42.706;23.372;2023-03-01T10:02:16;146048.84;;;7.59;100.00
6938;BME280;40040;42.706;23.372;2023-03-01T10:04:51;146067.31;;;7.67;100.00
6938;BME280;40040;42.706;23.372;2023-03-01T10:07:30;146082.06;;;7.73;100.00
6938;BME280;40040;42.706;23.372;2023-03-01T10:09:59;146089.44;;;7.76;100.00
6938;BME280;40040;42.706;23.372;2023-03-01T10:12:33;146072.22;;;7.69;100.00
6938;BME280;40040;42.706;23.372;2023-03-01T10:15:05;146082.06;;;7.73;100.00
6938;BME280;40040;42.706;23.372;2023-03-01T10:17:38;146077.13;;;7.71;100.00
6938;BME280;40040;42.706;23.372;2023-03-01T10:20:19;146057.47;;;7.63;100.00
6938;BME280;40040;42.706;23.372;2023-03-01T10:22:46;146073.44;;;7.69;100.00
6938;BME280;40040;42.706;23.372;2023-03-01T10:25:20;146105.47;;;7.82;100.00
6938;BME280;40040;42.706;23.372;2023-03-01T10:27:53;146123.91;;;7.90;100.00
6938;BME280;40040;42.706;23.372;2023-03-01T10:30:22;146106.69;;;7.83;100.00
6938;BME280;40040;42.706;23.372;2023-03-01T10:32:57;146095.63;;;7.78;100.00
6938;BME280;40040;42.706;23.372;2023-03-01T10:35:28;146109.16;;;7.84;100.00
6938;BME280;40040;42.706;23.372;2023-03-01T10:38:03;146094.38;;;7.78;100.00
6938;BME280;40040;42.706;23.372;2023-03-01T10:40:30;146110.41;;;7.84;100.00
6938;BME280;40040;42.706;23.372;2023-03-01T10:42:59;146099.31;;;7.80;100.00
6938;BME280;40040;42.706;23.372;2023-03-01T10:45:31;146127.59;;;7.91;100.00
6938;BME280;40040;42.706;23.372;2023-03-01T10:48:10;146153.44;;;8.02;100.00
6938;BME280;40040;42.706;23.372;2023-03-01T10:50:40;146159.63;;;8.05;100.00
6938;BME280;40040;42.706;23.372;2023-03-01T10:53:24;146201.50;;;8.22;100.00
6938;BME280;40040;42.706;23.372;2023-03-01T10:56:03;146234.78;;;8.35;100.00
6938;BME280;40040;42.706;23.372;2023-03-01T10:58:31;146261.88;;;8.46;100.00
6938;BME280;40040;42.706;23.372;2023-03-01T11:01:00;146263.13;;;8.47;100.00
6938;BME280;40040;42.706;23.372;2023-03-01T11:03:29;146254.50;;;8.43;100.00
6938;BME280;40040;42.706;23.372;2023-03-01T11:06:01;146249.56;;;8.41;100.00
6938;BME280;40040;42.706;23.372;2023-03-01T11:08:34;146264.31;;;8.47;100.00
6938;BME280;40040;42.706;23.372;2023-03-01T11:11:16;146256.94;;;8.44;100.00
6938;BME280;40040;42.706;23.372;2023-03-01T11:13:58;146249.56;;;8.41;100.00
6938;BME280;40040;42.706;23.372;2023-03-01T11:16:28;146231.09;;;8.34;100.00
6938;BME280;40040;42.706;23.372;2023-03-01T11:18:57;146158.38;;;8.04;100.00
6938;BME280;40040;42.706;23.372;2023-03-01T11:21:28;146227.41;;;8.32;100.00
6938;BME280;40040;42.706;23.372;2023-03-01T11:23:59;146205.19;;;8.23;100.00
6938;BME280;40040;42.706;23.372;2023-03-01T11:26:28;146200.25;;;8.21;100.00
6938;BME280;40040;42.706;23.372;2023-03-01T11:29:02;146083.31;;;7.73;100.00
6938;BME280;40040;42.706;23.372;2023-03-01T11:31:31;146213.84;;;8.27;100.00
6938;BME280;40040;42.706;23.372;2023-03-01T11:34:05;146146.06;;;7.99;100.00
6938;BME280;40040;42.706;23.372;2023-03-01T11:36:40;146213.84;;;8.27;100.00
6938;BME280;40040;42.706;23.372;2023-03-01T11:39:17;146141.16;;;7.97;100.00
6938;BME280;40040;42.706;23.372;2023-03-01T11:41:48;146183.03;;;8.14;100.00
6938;BME280;40040;42.706;23.372;2023-03-01T11:44:23;146197.81;;;8.20;100.00
6938;BME280;40040;42.706;23.372;2023-03-01T11:47:07;146027.94;;;7.51;100.00
6938;BME280;40040;42.706;23.372;2023-03-01T11:50:12;146184.25;;;8.15;100.00
6938;BME280;40040;42.706;23.372;2023-03-01T11:52:52;146218.78;;;8.29;100.00
6938;BME280;40040;42.706;23.372;2023-03-01T11:55:38;146222.47;;;8.30;100.00
6938;BME280;40040;42.706;23.372;2023-03-01T11:58:22;146200.25;;;8.21;100.00
6938;BME280;40040;42.706;23.372;2023-03-01T12:01:16;146265.56;;;8.48;100.00
6938;BME280;40040;42.706;23.372;2023-03-01T12:04:03;146195.34;;;8.19;100.00
6938;BME280;40040;42.706;23.372;2023-03-01T12:06:41;146190.41;;;8.17;100.00
6938;BME280;40040;42.706;23.372;2023-03-01T12:09:23;146254.50;;;8.43;100.00
6938;BME280;40040;42.706;23.372;2023-03-01T12:12:07;146287.75;;;8.57;100.00
6938;BME280;40040;42.706;23.372;2023-03-01T12:14:55;146291.44;;;8.58;100.00
6938;BME280;40040;42.706;23.372;2023-03-01T12:17:43;146297.63;;;8.61;100.00
6938;BME280;40040;42.706;23.372;2023-03-01T12:20:25;146247.13;;;8.40;100.00
6938;BME280;40040;42.706;23.372;2023-03-01T12:23:13;146279.13;;;8.53;100.00
6938;BME280;40040;42.706;23.372;2023-03-01T12:25:46;146266.81;;;8.48;100.00
6938;BME280;40040;42.706;23.372;2023-03-01T12:28:26;146270.50;;;8.50;100.00
6938;BME280;40040;42.706;23.372;2023-03-01T12:31:12;146255.75;;;8.44;100.00
6938;BME280;40040;42.706;23.372;2023-03-01T12:33:50;146276.69;;;8.52;100.00
6938;BME280;40040;42.706;23.372;2023-03-01T12:36:35;146206.47;;;8.24;100.00
6938;BME280;40040;42.706;23.372;2023-03-01T12:39:24;146306.25;;;8.64;100.00
6938;BME280;40040;42.706;23.372;2023-03-01T12:42:01;146295.13;;;8.60;100.00
6938;BME280;40040;42.706;23.372;2023-03-01T12:44:46;146287.75;;;8.57;100.00
6938;BME280;40040;42.706;23.372;2023-03-01T12:47:30;146296.38;;;8.60;100.00
6938;BME280;40040;42.706;23.372;2023-03-01T12:50:04;146318.56;;;8.69;100.00
6938;BME280;40040;42.706;23.372;2023-03-01T12:52:40;146311.19;;;8.66;100.00
6938;BME280;40040;42.706;23.372;2023-03-01T12:55:22;146276.69;;;8.52;100.00
6938;BME280;40040;42.706;23.372;2023-03-01T12:57:58;146307.44;;;8.65;100.00
6938;BME280;40040;42.706;23.372;2023-03-01T13:00:28;146293.94;;;8.59;100.00
6938;BME280;40040;42.706;23.372;2023-03-01T13:03:02;146348.13;;;8.81;100.00
6938;BME280;40040;42.706;23.372;2023-03-01T13:05:42;146341.94;;;8.79;100.00
6938;BME280;40040;42.706;23.372;2023-03-01T13:08:16;146318.56;;;8.69;100.00